Time;durP1;ratioP1;P1;durP2;ratioP2;P2;SDS_P1;SDS_P2;PMS_P1;PMS_P2;Temp;Humidity;BMP_temperature;BMP_pressure;BME280_temperature;BME280_humidity;BME280_pressure;Samples;Min_cycle;Max_cycle;Signal;HPM_P1;HPM_P2
2022/01/20 00:03:32;;;;;;;352.70;188.55;;;38.40;2201.60;;;;;;4844226;29;20109;-76
2022/01/20 00:29:16;;;;;;;224.40;122.40;;;38.70;2201.60;;;;;;4847317;29;20062;-82
2022/01/20 01:53:09;;;;;;;119.88;66.50;;;39.20;2201.60;;;;;;4697717;30;20042;-79
2022/01/20 01:56:42;;;;;;;130.75;62.88;;;39.30;2201.60;;;;;;4699714;30;20404;-78
2022/01/20 02:00:40;;;;;;;133.50;69.53;;;64.00;2201.60;;;;;;4647404;30;20047;-78
2022/01/20 02:04:01;;;;;;;102.68;52.40;;;39.30;2201.60;;;;;;4671242;30;20039;-78
2022/01/20 02:20:33;;;;;;;140.85;66.07;;;64.30;2201.60;;;;;;4720758;30;20045;-78
2022/01/20 02:23:21;;;;;;;92.35;49.78;;;64.20;2201.60;;;;;;4699777;30;20116;-77
2022/01/20 02:26:14;;;;;;;89.03;47.92;;;64.30;2201.60;;;;;;4697735;30;20112;-78
2022/01/20 02:28:59;;;;;;;96.18;50.08;;;64.30;2201.60;;;;;;4737674;30;20037;-78
2022/01/20 02:32:06;;;;;;;85.68;43.80;;;64.20;2201.60;;;;;;4735784;29;20048;-78
2022/01/20 02:35:31;;;;;;;96.68;52.78;;;64.30;2201.60;;;;;;4827658;29;20066;-77
2022/01/20 02:38:19;;;;;;;87.22;47.55;;;64.30;2201.60;;;;;;4804794;30;20058;-78
2022/01/20 02:45:06;;;;;;;83.07;41.42;;;64.30;2201.60;;;;;;4787164;30;20031;-77
2022/01/20 02:48:19;;;;;;;81.75;41.28;;;64.10;2201.60;;;;;;4759196;30;20129;-78
2022/01/20 02:51:22;;;;;;;96.40;50.38;;;64.20;2201.60;;;;;;4789965;30;20050;-78
2022/01/20 02:54:19;;;;;;;90.32;49.75;;;64.10;2201.60;;;;;;4774754;30;20077;-78
2022/01/20 02:57:00;;;;;;;99.05;51.22;;;64.20;2201.60;;;;;;4770401;30;20048;-78
2022/01/20 02:59:51;;;;;;;;;;;64.30;2201.60;;;;;;4791358;29;20039;-78
2022/01/20 03:02:24;;;;;;;94.05;51.40;;;64.30;2201.60;;;;;;4809594;29;19913;-78
2022/01/20 03:05:23;;;;;;;92.28;50.08;;;64.40;2201.60;;;;;;4826898;29;20039;-77
2022/01/20 03:08:18;;;;;;;101.28;53.40;;;64.30;2201.60;;;;;;4826823;29;20035;-77
2022/01/20 03:11:52;;;;;;;94.10;52.83;;;64.30;2201.60;;;;;;4812445;29;20054;-77
2022/01/20 03:15:15;;;;;;;87.85;44.95;;;64.50;2201.60;;;;;;4799665;29;20034;-78
2022/01/20 03:18:29;;;;;;;104.60;60.17;;;64.50;2201.60;;;;;;4826723;29;20042;-78
2022/01/20 03:24:51;;;;;;;89.47;45.88;;;64.40;2201.60;;;;;;4779904;29;20146;-77
2022/01/20 03:27:51;;;;;;;87.18;47.08;;;64.70;2201.60;;;;;;4796499;29;20102;-77
2022/01/20 03:30:19;;;;;;;111.53;54.72;;;64.60;2201.60;;;;;;4811944;29;20065;-77
2022/01/20 03:32:52;;;;;;;106.97;53.10;;;64.60;2201.60;;;;;;4810807;29;20043;-78
2022/01/20 03:35:52;;;;;;;94.90;46.28;;;64.60;2201.60;;;;;;4826912;29;20124;-77
2022/01/20 03:38:59;;;;;;;94.05;49.30;;;64.60;2201.60;;;;;;4773619;30;20032;-78
2022/01/20 03:46:02;;;;;;;93.65;49.35;;;64.70;2201.60;;;;;;4773003;30;20035;-78
2022/01/20 03:52:54;;;;;;;84.07;46.75;;;64.90;2201.60;;;;;;4770537;30;20031;-78
2022/01/20 04:57:48;;;;;;;145.25;73.75;;;89.60;2201.60;;;;;;4847844;29;20026;-80
2022/01/20 05:14:54;;;;;;;110.10;59.45;;;64.90;2201.60;;;;;;4775352;30;20028;-80
2022/01/20 05:18:16;;;;;;;82.93;46.25;;;89.60;2201.60;;;;;;4768835;30;20032;-79
2022/01/20 05:38:55;;;;;;;164.40;74.68;;;90.00;2176.00;;;;;;4778169;30;20152;-79
2022/01/20 05:45:37;;;;;;;113.03;52.17;;;90.20;2176.00;;;;;;4754291;30;20067;-80
2022/01/20 05:48:49;;;;;;;245.05;103.32;;;90.30;2176.00;;;;;;4735867;30;20033;-80
2022/01/20 06:09:28;;;;;;;147.25;75.00;;;115.30;2176.00;;;;;;4688717;30;20043;-80
2022/01/20 06:12:42;;;;;;;182.23;111.18;;;90.40;2176.00;;;;;;4703453;30;20041;-79
2022/01/20 06:16:10;;;;;;;156.35;77.32;;;115.20;2176.00;;;;;;4712849;30;20085;-81
2022/01/20 06:19:52;;;;;;;239.18;134.90;;;90.40;2176.00;;;;;;4715261;30;20021;-80
2022/01/20 06:30:46;;;;;;;287.27;151.55;;;90.10;2176.00;;;;;;4665663;30;20037;-80
2022/01/20 06:34:09;;;;;;;148.88;84.05;;;90.10;2176.00;;;;;;4667199;30;20035;-80
2022/01/20 06:59:26;;;;;;;197.23;112.32;;;90.30;2176.00;;;;;;4715915;30;20161;-80
2022/01/20 08:08:07;;;;;;;112.57;62.75;;;39.20;2201.60;;;;;;4863142;29;20056;-79
2022/01/20 08:32:07;;;;;;;84.68;46.33;;;38.40;2201.60;;;;;;4889760;24;20046;-80
2022/01/20 08:34:33;;;;;;;86.78;51.42;;;13.70;2201.60;;;;;;4827841;29;20038;-80
2022/01/20 08:36:59;;;;;;;92.90;55.10;;;13.70;2201.60;;;;;;4827433;29;20079;-78
2022/01/20 08:42:03;;;;;;;84.63;52.95;;;13.60;2201.60;;;;;;4845129;29;20060;-81
2022/01/20 08:50:56;;;;;;;87.53;50.45;;;13.20;2201.60;;;;;;4832774;29;20570;-88
2022/01/20 08:53:22;;;;;;;98.55;55.00;;;13.10;2201.60;;;;;;4828303;29;20109;-88
2022/01/20 08:55:47;;;;;;;101.45;63.35;;;13.00;2201.60;;;;;;4827829;29;20022;-90
2022/01/20 08:58:13;;;;;;;95.63;59.22;;;12.90;2201.60;;;;;;4827962;29;20417;-88
2022/01/20 09:00:39;;;;;;;89.35;58.95;;;0.00;2201.60;;;;;;4827114;29;20041;-87
2022/01/20 09:03:05;;;;;;;105.40;60.40;;;0.10;2201.60;;;;;;4826268;29;20518;-87
2022/01/20 09:05:31;;;;;;;105.85;60.50;;;0.20;2201.60;;;;;;4826792;29;20018;-87
2022/01/20 09:07:57;;;;;;;98.40;57.33;;;0.20;2201.60;;;;;;4827330;29;20086;-87
2022/01/20 09:10:23;;;;;;;100.00;54.65;;;0.40;2201.60;;;;;;4827719;29;20041;-87
2022/01/20 09:15:35;;;;;;;93.15;49.50;;;0.70;2201.60;;;;;;4844031;29;20082;-89
2022/01/20 09:18:05;;;;;;;83.25;47.97;;;0.70;2201.60;;;;;;4827189;29;20067;-86
2022/01/20 09:20:31;;;;;;;85.90;51.20;;;0.90;2201.60;;;;;;4843591;29;20034;-86
2022/01/20 09:22:58;;;;;;;67.30;41.92;;;25.90;2201.60;;;;;;4827687;29;20033;-89
2022/01/20 09:25:25;;;;;;;64.07;39.55;;;25.80;2201.60;;;;;;4843977;29;20026;-87
2022/01/20 09:27:51;;;;;;;72.00;42.50;;;25.90;2201.60;;;;;;4827299;29;20378;-87
2022/01/20 09:30:19;;;;;;;71.43;42.20;;;26.00;2201.60;;;;;;4827308;29;20057;-88
2022/01/20 09:32:58;;;;;;;65.55;42.53;;;26.10;2201.60;;;;;;4827425;29;20483;-87
2022/01/20 09:35:28;;;;;;;71.70;40.13;;;26.20;2201.60;;;;;;4827827;29;20033;-86
2022/01/20 09:41:16;;;;;;;45.03;28.50;;;26.50;2201.60;;;;;;4843122;29;20037;-89
2022/01/20 09:43:42;;;;;;;60.55;38.65;;;26.50;2201.60;;;;;;4826991;29;20061;-87
2022/01/20 09:46:08;;;;;;;67.88;42.65;;;51.30;2227.20;;;;;;4827043;29;20065;-88
2022/01/20 09:48:34;;;;;;;59.38;35.20;;;51.40;2227.20;;;;;;4827197;29;20113;-85
2022/01/20 09:51:00;;;;;;;59.65;32.60;;;51.60;2227.20;;;;;;4827233;29;20041;-86
2022/01/20 09:53:28;;;;;;;81.55;49.28;;;52.00;2227.20;;;;;;4827385;29;20033;-87
2022/01/20 09:55:54;;;;;;;55.53;34.53;;;52.00;2227.20;;;;;;4826962;29;20375;-87
2022/01/20 09:58:20;;;;;;;39.25;25.95;;;52.00;2227.20;;;;;;4827200;29;20030;-86
2022/01/20 10:00:47;;;;;;;69.57;46.13;;;52.10;2227.20;;;;;;4827494;29;20026;-85
2022/01/20 10:03:18;;;;;;;70.20;41.92;;;76.80;2227.20;;;;;;4827148;29;20022;-86
2022/01/20 10:05:49;;;;;;;55.67;31.23;;;77.10;2227.20;;;;;;4827311;29;20026;-86
2022/01/20 10:08:21;;;;;;;60.45;34.95;;;77.30;2227.20;;;;;;4826664;29;20082;-85
2022/01/20 10:10:51;;;;;;;68.75;40.10;;;77.40;2227.20;;;;;;4826984;29;20025;-86
2022/01/20 10:13:21;;;;;;;55.17;32.38;;;77.40;2227.20;;;;;;4827088;29;20022;-85
2022/01/20 10:16:06;;;;;;;44.38;23.42;;;77.60;2227.20;;;;;;4826833;29;20022;-85
2022/01/20 10:18:34;;;;;;;37.67;20.65;;;77.70;2227.20;;;;;;4826843;29;20026;-86
2022/01/20 10:21:05;;;;;;;51.42;28.38;;;102.40;2227.20;;;;;;4843020;29;20076;-85
2022/01/20 10:23:38;;;;;;;40.15;26.88;;;102.50;2227.20;;;;;;4826789;29;20033;-85
2022/01/20 10:26:06;;;;;;;46.47;26.75;;;102.60;2227.20;;;;;;4827240;29;20037;-86
2022/01/20 10:29:03;;;;;;;128.02;55.97;;;102.60;2227.20;;;;;;4827120;29;20026;-85
2022/01/20 10:31:37;;;;;;;75.15;43.35;;;102.60;2227.20;;;;;;4830173;29;20042;-85
2022/01/20 10:34:06;;;;;;;76.25;43.17;;;102.80;2227.20;;;;;;4830056;29;20032;-86
2022/01/20 10:36:38;;;;;;;62.60;39.67;;;102.80;2227.20;;;;;;4829572;29;20121;-85
2022/01/20 10:39:05;;;;;;;56.73;37.50;;;102.90;2227.20;;;;;;4830019;29;20113;-85
2022/01/20 10:41:39;;;;;;;65.85;43.80;;;103.10;2227.20;;;;;;4829923;29;20034;-84
2022/01/20 10:44:16;;;;;;;80.72;48.75;;;103.10;2227.20;;;;;;4829749;29;20030;-84
2022/01/20 10:46:53;;;;;;;74.18;44.42;;;103.20;2227.20;;;;;;4829855;29;20452;-84
2022/01/20 10:49:21;;;;;;;69.65;39.40;;;103.20;2227.20;;;;;;4829847;29;20034;-85
2022/01/20 10:52:09;;;;;;;47.03;27.13;;;128.10;2252.80;;;;;;4829096;29;20045;-84
2022/01/20 10:54:56;;;;;;;44.67;30.85;;;128.40;2252.80;;;;;;4829551;29;20471;-84
2022/01/20 10:57:30;;;;;;;50.22;32.22;;;128.70;2252.80;;;;;;4828614;29;20040;-84
2022/01/20 11:00:04;;;;;;;73.70;46.15;;;128.60;2252.80;;;;;;4829446;29;20118;-83
2022/01/20 11:02:30;;;;;;;68.45;44.50;;;128.60;2252.80;;;;;;4829537;29;20021;-84
2022/01/20 11:04:57;;;;;;;59.35;39.20;;;128.60;2252.80;;;;;;4829009;29;20037;-84
2022/01/20 11:07:24;;;;;;;40.83;23.42;;;128.60;2252.80;;;;;;4829455;29;20030;-82
2022/01/20 11:10:02;;;;;;;39.10;19.25;;;128.80;2252.80;;;;;;4829281;29;20029;-82
2022/01/20 11:12:28;;;;;;;33.10;21.35;;;153.60;2252.80;;;;;;4845592;29;20050;-84
2022/01/20 11:14:56;;;;;;;29.48;16.23;;;153.60;2252.80;;;;;;4829233;29;20030;-84
2022/01/20 11:17:25;;;;;;;29.92;18.85;;;153.80;2252.80;;;;;;4829355;29;20029;-83
2022/01/20 11:19:51;;;;;;;30.60;18.02;;;154.00;2252.80;;;;;;4828945;29;20037;-83
2022/01/20 11:22:20;;;;;;;25.92;15.43;;;154.20;2252.80;;;;;;4829191;29;20481;-82
2022/01/20 11:25:00;;;;;;;20.77;13.93;;;154.20;2252.80;;;;;;4828855;29;20030;-83
2022/01/20 11:27:43;;;;;;;18.10;12.32;;;154.40;2252.80;;;;;;4845525;29;20057;-83
2022/01/20 11:30:26;;;;;;;21.95;13.18;;;179.30;2227.20;;;;;;4829041;29;20050;-82
2022/01/20 11:33:07;;;;;;;27.35;13.70;;;179.50;2227.20;;;;;;4828839;29;20181;-83
2022/01/20 11:35:49;;;;;;;26.50;18.40;;;179.70;2176.00;;;;;;4828985;29;20475;-82
2022/01/20 11:38:20;;;;;;;36.38;23.10;;;179.90;2176.00;;;;;;4845413;29;20037;-83
2022/01/20 11:40:58;;;;;;;26.35;15.65;;;180.00;2176.00;;;;;;4828162;29;20025;-82
2022/01/20 11:43:36;;;;;;;24.55;15.00;;;180.10;2150.40;;;;;;4828747;29;20030;-81
2022/01/20 11:46:18;;;;;;;23.55;12.82;;;205.10;2099.20;;;;;;4828331;29;20073;-82
2022/01/20 11:49:04;;;;;;;34.20;18.08;;;205.40;2073.60;;;;;;4828620;29;20091;-82
2022/01/20 11:51:52;;;;;;;45.83;28.42;;;205.60;2048.00;;;;;;4828515;29;20522;-84
2022/01/20 11:54:40;;;;;;;34.90;21.30;;;205.30;2073.60;;;;;;4827644;29;20383;-84
2022/01/20 11:58:32;;;;;;;25.00;16.95;;;205.00;2099.20;;;;;;4828332;29;20026;-84
2022/01/20 12:17:56;;;;;;;62.47;34.28;;;180.10;2252.80;;;;;;4801507;29;20045;-81
2022/01/20 12:20:23;;;;;;;68.45;41.25;;;205.10;2252.80;;;;;;4844356;29;20374;-83
2022/01/20 12:22:51;;;;;;;91.60;52.67;;;230.40;2201.60;;;;;;4827564;29;20095;-79
2022/01/20 12:25:26;;;;;;;98.53;54.33;;;231.00;2150.40;;;;;;4827337;29;20455;-76
2022/01/20 12:28:12;;;;;;;104.18;60.95;;;231.30;2073.60;;;;;;4827286;29;20348;-79
2022/01/20 12:30:50;;;;;;;109.35;67.57;;;231.20;2073.60;;;;;;4843461;29;20053;-84
2022/01/20 12:37:12;;;;;;;67.68;39.05;;;256.40;2048.00;;;;;;4823282;29;20074;-80
2022/01/20 13:00:27;;;;;;;60.30;40.17;;;205.60;2150.40;;;;;;4824398;29;20056;-82
2022/01/20 13:02:53;;;;;;;60.45;40.92;;;205.40;2201.60;;;;;;4807951;29;20033;-81
2022/01/20 13:05:20;;;;;;;55.17;34.38;;;205.40;2227.20;;;;;;4807960;29;20538;-82
2022/01/20 13:07:51;;;;;;;50.05;34.92;;;205.30;2227.20;;;;;;4819659;29;20041;-83
2022/01/20 13:10:23;;;;;;;43.40;29.23;;;205.30;2252.80;;;;;;4843605;29;20378;-83
2022/01/20 13:12:51;;;;;;;39.88;26.40;;;205.20;2227.20;;;;;;4827336;29;20037;-84
2022/01/20 13:15:16;;;;;;;43.20;30.10;;;205.10;2252.80;;;;;;4843605;29;20106;-81
2022/01/20 13:17:44;;;;;;;49.13;34.03;;;205.00;2252.80;;;;;;4843780;29;20468;-80
2022/01/20 13:20:31;;;;;;;50.45;33.40;;;205.00;2252.80;;;;;;4843140;29;20026;-81
2022/01/20 13:25:42;;;;;;;39.80;26.45;;;205.00;2252.80;;;;;;4843304;29;20029;-79
2022/01/20 13:28:10;;;;;;;28.98;17.88;;;205.00;2252.80;;;;;;4843083;29;20162;-77
2022/01/20 13:30:41;;;;;;;28.20;19.67;;;204.90;2252.80;;;;;;4827034;29;20447;-82
2022/01/20 13:33:18;;;;;;;72.63;38.15;;;204.90;2252.80;;;;;;4827790;29;20045;-84
2022/01/20 13:35:48;;;;;;;140.95;70.28;;;204.90;2252.80;;;;;;4826934;29;20033;-84
2022/01/20 13:38:18;;;;;;;120.53;74.88;;;204.90;2252.80;;;;;;4826755;29;20086;-82
2022/01/20 13:40:47;;;;;;;127.45;75.97;;;204.90;2252.80;;;;;;4843173;29;20120;-79
2022/01/20 13:46:00;;;;;;;155.27;96.32;;;204.80;2252.80;;;;;;4843063;29;20037;-77
2022/01/20 13:48:43;;;;;;;152.68;97.07;;;180.10;2252.80;;;;;;4826268;29;20034;-81
2022/01/20 13:51:34;;;;;;;;;;;180.10;2252.80;;;;;;4826713;29;20041;-78
2022/01/20 13:54:11;;;;;;;150.52;91.90;;;180.10;2252.80;;;;;;4841667;29;19904;-79
2022/01/20 13:56:37;;;;;;;148.30;94.15;;;180.10;2252.80;;;;;;4826065;29;20425;-78
2022/01/20 13:59:09;;;;;;;134.82;86.97;;;180.10;2252.80;;;;;;4824462;29;20095;-76
2022/01/20 14:01:35;;;;;;;136.93;88.85;;;180.10;2252.80;;;;;;4825311;29;20453;-76
2022/01/20 14:04:01;;;;;;;135.25;89.13;;;180.10;2252.80;;;;;;4835838;29;20060;-75
2022/01/20 14:06:28;;;;;;;147.70;88.82;;;180.10;2252.80;;;;;;4846925;29;20120;-78
2022/01/20 14:08:54;;;;;;;204.00;117.95;;;205.00;2252.80;;;;;;4847380;29;20374;-79
2022/01/20 14:11:47;;;;;;;219.27;126.40;;;180.00;2252.80;;;;;;4846824;29;20116;-79
2022/01/20 14:14:13;;;;;;;225.20;130.20;;;179.90;2252.80;;;;;;4846659;29;20022;-79
2022/01/20 14:16:45;;;;;;;178.45;104.78;;;179.80;2252.80;;;;;;4847070;29;20033;-79
2022/01/20 14:19:27;;;;;;;176.20;105.72;;;205.50;2252.80;;;;;;4847230;29;20037;-81
2022/01/20 14:21:53;;;;;;;212.02;116.72;;;180.10;2252.80;;;;;;4846568;29;20462;-79
2022/01/20 14:24:18;;;;;;;228.80;132.60;;;179.90;2252.80;;;;;;4846806;29;20054;-80
2022/01/20 14:26:44;;;;;;;303.15;166.50;;;179.90;2252.80;;;;;;4847053;29;20033;-77
2022/01/20 14:29:12;;;;;;;230.25;130.30;;;179.90;2252.80;;;;;;4863531;29;20024;-80
2022/01/20 14:31:38;;;;;;;186.90;110.68;;;179.80;2252.80;;;;;;4846644;29;20106;-82
2022/01/20 14:34:04;;;;;;;127.35;77.22;;;179.80;2252.80;;;;;;4847647;29;20034;-82
2022/01/20 14:36:29;;;;;;;186.05;109.93;;;179.70;2252.80;;;;;;4863503;29;20033;-83
2022/01/20 14:38:55;;;;;;;221.30;125.85;;;179.80;2252.80;;;;;;4847144;29;20071;-80
2022/01/20 14:41:21;;;;;;;160.38;104.05;;;179.80;2252.80;;;;;;4863973;29;20455;-82
2022/01/20 14:43:47;;;;;;;40.72;26.17;;;179.80;2252.80;;;;;;4847618;29;20028;-82
2022/01/20 14:46:12;;;;;;;36.67;23.88;;;180.00;2252.80;;;;;;4847715;29;20056;-82
2022/01/20 14:48:52;;;;;;;44.72;27.42;;;205.00;2252.80;;;;;;4847733;29;20026;-78
2022/01/20 14:51:17;;;;;;;29.33;15.68;;;205.00;2252.80;;;;;;4847601;29;20033;-84
2022/01/20 14:53:43;;;;;;;21.30;12.02;;;205.20;2252.80;;;;;;4847915;29;20374;-80
2022/01/20 14:56:16;;;;;;;20.48;12.85;;;205.40;2252.80;;;;;;4847879;29;20450;-79
2022/01/20 14:58:41;;;;;;;23.13;13.48;;;205.50;2252.80;;;;;;4847604;29;20033;-82
2022/01/20 15:01:07;;;;;;;25.40;15.63;;;205.40;2252.80;;;;;;4864344;29;20038;-80
2022/01/20 15:03:33;;;;;;;32.45;19.30;;;205.40;2252.80;;;;;;4864410;29;20021;-83
2022/01/20 15:05:59;;;;;;;23.73;16.20;;;205.40;2252.80;;;;;;4847424;29;20049;-83
2022/01/20 15:08:26;;;;;;;17.75;11.85;;;205.30;2252.80;;;;;;4847640;29;20040;-83
2022/01/20 15:10:52;;;;;;;23.55;16.48;;;205.50;2252.80;;;;;;4847647;29;20029;-82
2022/01/20 15:13:18;;;;;;;34.30;22.42;;;205.40;2252.80;;;;;;4847496;29;20351;-79
2022/01/20 15:15:44;;;;;;;29.73;16.98;;;205.40;2252.80;;;;;;4846824;29;20112;-83
2022/01/20 15:18:10;;;;;;;30.30;19.10;;;205.60;2252.80;;;;;;4847307;29;20037;-82
2022/01/20 15:20:36;;;;;;;35.25;20.58;;;205.30;2252.80;;;;;;4846885;29;20044;-83
2022/01/20 15:23:02;;;;;;;30.15;17.52;;;205.20;2252.80;;;;;;4847208;29;20470;-82
2022/01/20 15:25:31;;;;;;;28.58;17.67;;;205.10;2252.80;;;;;;4847327;29;20021;-84
2022/01/20 15:27:57;;;;;;;34.13;19.27;;;205.10;2252.80;;;;;;4847320;29;20116;-82
2022/01/20 15:30:23;;;;;;;46.13;26.90;;;205.00;2252.80;;;;;;4846859;29;20049;-82
2022/01/20 15:32:49;;;;;;;42.95;25.05;;;205.00;2252.80;;;;;;4847077;29;20028;-82
2022/01/20 15:35:15;;;;;;;44.28;24.60;;;204.80;2252.80;;;;;;4847023;29;20037;-84
2022/01/20 15:37:41;;;;;;;40.10;25.98;;;180.10;2252.80;;;;;;4847555;29;20025;-89
2022/01/20 15:40:10;;;;;;;58.50;33.95;;;180.10;2252.80;;;;;;4847541;29;20026;-83
2022/01/20 15:42:42;;;;;;;74.18;42.00;;;180.10;2252.80;;;;;;4847450;29;20073;-84
2022/01/20 15:45:09;;;;;;;73.45;49.95;;;204.80;2252.80;;;;;;4847596;29;20032;-85
2022/01/20 15:47:45;;;;;;;75.65;45.25;;;204.80;2252.80;;;;;;4847238;29;20474;-86
2022/01/20 15:50:34;;;;;;;48.05;29.15;;;180.10;2252.80;;;;;;4847203;29;20028;-84
2022/01/20 15:53:06;;;;;;;78.45;49.83;;;180.10;2252.80;;;;;;4837192;29;20037;-85
2022/01/20 15:55:38;;;;;;;84.90;54.50;;;180.10;2252.80;;;;;;4847189;29;20029;-86
2022/01/20 15:58:05;;;;;;;60.15;37.60;;;180.10;2252.80;;;;;;4846910;29;20037;-89
2022/01/20 16:00:31;;;;;;;36.17;23.55;;;180.00;2252.80;;;;;;4847097;29;20529;-85
2022/01/20 16:02:58;;;;;;;73.82;48.35;;;180.00;2252.80;;;;;;4846918;29;20061;-84
2022/01/20 16:05:24;;;;;;;67.95;45.15;;;179.90;2252.80;;;;;;4846971;29;20029;-84
2022/01/20 16:07:50;;;;;;;83.57;52.38;;;179.80;2252.80;;;;;;4847052;29;20143;-84
2022/01/20 16:10:16;;;;;;;46.33;27.45;;;179.80;2252.80;;;;;;4846755;29;20037;-86
2022/01/20 16:12:42;;;;;;;33.45;20.13;;;179.70;2252.80;;;;;;4847115;29;20114;-89
2022/01/20 16:15:09;;;;;;;41.13;25.77;;;179.80;2252.80;;;;;;4846735;29;20488;-83
2022/01/20 16:17:35;;;;;;;62.92;37.95;;;179.90;2252.80;;;;;;4847084;29;20045;-88
2022/01/20 16:20:01;;;;;;;66.13;41.65;;;179.80;2252.80;;;;;;4863794;29;20056;-86
2022/01/20 16:22:27;;;;;;;91.47;52.90;;;179.70;2252.80;;;;;;4846532;29;20028;-87
2022/01/20 16:24:53;;;;;;;94.03;53.20;;;179.70;2252.80;;;;;;4846958;29;20145;-87
2022/01/20 16:27:19;;;;;;;66.45;45.72;;;179.60;2252.80;;;;;;4846839;29;20057;-84
2022/01/20 16:29:52;;;;;;;62.22;40.92;;;179.50;2252.80;;;;;;4846698;29;20037;-87
2022/01/20 16:32:18;;;;;;;66.60;41.53;;;179.60;2252.80;;;;;;4846508;29;20121;-86
2022/01/20 16:34:44;;;;;;;71.25;43.63;;;179.60;2252.80;;;;;;4846276;29;20041;-83
2022/01/20 16:37:11;;;;;;;76.90;48.28;;;179.70;2252.80;;;;;;4846726;29;20036;-87
2022/01/20 16:39:37;;;;;;;78.05;47.67;;;179.50;2252.80;;;;;;4846452;29;20025;-83
2022/01/20 16:42:05;;;;;;;120.18;73.03;;;179.50;2252.80;;;;;;4846314;29;20373;-86
2022/01/20 16:44:32;;;;;;;120.75;73.75;;;179.50;2252.80;;;;;;4846195;29;20116;-84
2022/01/20 16:46:59;;;;;;;119.38;70.43;;;179.50;2252.80;;;;;;4846603;29;20458;-85
2022/01/20 16:49:25;;;;;;;90.82;56.25;;;179.40;2252.80;;;;;;4846441;29;20034;-86
2022/01/20 16:51:51;;;;;;;62.35;40.45;;;179.50;2252.80;;;;;;4846405;29;20065;-85
2022/01/20 16:54:18;;;;;;;95.25;61.92;;;179.60;2252.80;;;;;;4846444;29;20025;-82
2022/01/20 16:56:44;;;;;;;107.68;67.07;;;179.60;2252.80;;;;;;4846282;29;20021;-84
2022/01/20 16:59:10;;;;;;;107.45;66.00;;;179.70;2252.80;;;;;;4845996;29;20116;-84
2022/01/20 17:01:36;;;;;;;149.23;83.03;;;179.70;2252.80;;;;;;4846092;29;20437;-87
2022/01/20 17:04:01;;;;;;;99.97;59.47;;;179.70;2252.80;;;;;;4846019;29;20510;-85
2022/01/20 17:06:27;;;;;;;103.70;62.83;;;179.90;2252.80;;;;;;4846167;29;20025;-86
2022/01/20 17:08:53;;;;;;;73.93;45.72;;;179.70;2252.80;;;;;;4846133;29;20473;-84
2022/01/20 17:11:20;;;;;;;60.17;39.50;;;179.50;2252.80;;;;;;4845676;29;20044;-82
2022/01/20 17:13:45;;;;;;;63.10;38.35;;;179.60;2252.80;;;;;;4845920;29;20462;-84
2022/01/20 17:16:12;;;;;;;74.63;46.05;;;179.70;2252.80;;;;;;4845563;29;20068;-83
2022/01/20 17:18:38;;;;;;;69.10;43.90;;;180.00;2252.80;;;;;;4845784;29;20101;-86
2022/01/20 17:21:04;;;;;;;56.97;32.42;;;179.70;2252.80;;;;;;4845823;29;20030;-82
2022/01/20 17:23:32;;;;;;;78.80;44.45;;;179.70;2252.80;;;;;;4862271;29;20032;-86
2022/01/20 17:26:01;;;;;;;68.05;41.85;;;179.70;2252.80;;;;;;4845657;29;20029;-81
2022/01/20 17:28:28;;;;;;;65.85;41.72;;;179.80;2252.80;;;;;;4845332;29;20021;-83
2022/01/20 17:30:55;;;;;;;49.35;29.80;;;179.80;2252.80;;;;;;4844912;29;20394;-84
2022/01/20 17:33:21;;;;;;;44.67;29.23;;;179.90;2252.80;;;;;;4845218;29;20366;-81
2022/01/20 17:35:51;;;;;;;35.40;21.05;;;179.90;2252.80;;;;;;4845532;29;20451;-84
2022/01/20 17:38:18;;;;;;;32.33;22.10;;;179.90;2252.80;;;;;;4844777;29;20044;-85
2022/01/20 17:40:46;;;;;;;40.00;23.35;;;179.90;2252.80;;;;;;4845344;29;20090;-84
2022/01/20 17:43:12;;;;;;;56.78;37.75;;;179.90;2252.80;;;;;;4861843;29;20026;-83
2022/01/20 17:45:38;;;;;;;48.28;31.40;;;179.90;2252.80;;;;;;4845566;29;20128;-82
2022/01/20 17:48:05;;;;;;;47.05;31.90;;;179.90;2252.80;;;;;;4845267;29;20025;-82
2022/01/20 17:50:31;;;;;;;56.38;43.03;;;179.90;2252.80;;;;;;4861864;29;20044;-84
2022/01/20 17:52:56;;;;;;;41.53;31.98;;;179.90;2252.80;;;;;;4845372;29;20112;-84
2022/01/20 17:55:23;;;;;;;36.53;24.08;;;179.90;2252.80;;;;;;4845191;29;20128;-83
2022/01/20 17:57:50;;;;;;;26.73;17.52;;;179.90;2252.80;;;;;;4845238;29;20036;-81
2022/01/20 18:00:19;;;;;;;36.08;20.90;;;179.90;2252.80;;;;;;4861294;29;20028;-83
2022/01/20 18:02:46;;;;;;;27.25;19.35;;;179.90;2252.80;;;;;;4845379;29;20120;-87
2022/01/20 18:05:14;;;;;;;18.65;13.38;;;179.90;2252.80;;;;;;4845193;29;20030;-80
2022/01/20 18:07:40;;;;;;;16.48;12.38;;;179.90;2252.80;;;;;;4844972;29;20037;-82
2022/01/20 18:10:08;;;;;;;28.10;20.88;;;180.00;2252.80;;;;;;4845367;29;20163;-84
2022/01/20 18:12:35;;;;;;;35.30;23.05;;;180.00;2252.80;;;;;;4845026;29;20033;-83
2022/01/20 18:15:02;;;;;;;33.58;19.88;;;179.90;2252.80;;;;;;4861719;29;20033;-84
2022/01/20 18:17:28;;;;;;;22.30;12.73;;;180.00;2252.80;;;;;;4845119;29;20101;-86
2022/01/20 18:19:58;;;;;;;17.83;12.23;;;180.00;2252.80;;;;;;4845434;29;20067;-78
2022/01/20 18:22:25;;;;;;;14.60;9.82;;;180.00;2252.80;;;;;;4861206;29;20057;-84
2022/01/20 18:24:52;;;;;;;16.10;10.18;;;179.90;2252.80;;;;;;4844930;29;20036;-81
2022/01/20 18:27:34;;;;;;;21.88;12.13;;;180.00;2252.80;;;;;;4845068;29;20459;-84
2022/01/20 18:29:59;;;;;;;17.42;8.73;;;180.10;2252.80;;;;;;4844651;29;20041;-81
2022/01/20 18:32:26;;;;;;;44.92;25.23;;;180.10;2252.80;;;;;;4844617;29;20036;-84
2022/01/20 18:34:54;;;;;;;31.73;19.70;;;180.10;2252.80;;;;;;4844389;29;20037;-81
2022/01/20 18:37:20;;;;;;;21.20;14.13;;;180.00;2252.80;;;;;;4844104;29;20352;-81
2022/01/20 18:39:46;;;;;;;21.33;10.95;;;180.00;2252.80;;;;;;4844100;29;20032;-82
2022/01/20 18:42:12;;;;;;;10.80;7.70;;;180.10;2252.80;;;;;;4844405;29;20033;-81
2022/01/20 18:44:39;;;;;;;35.00;19.98;;;180.10;2252.80;;;;;;4844333;29;20025;-81
2022/01/20 18:47:05;;;;;;;25.90;14.98;;;180.10;2252.80;;;;;;4861177;29;20518;-81
2022/01/20 18:49:31;;;;;;;43.53;26.63;;;180.10;2252.80;;;;;;4844629;29;20121;-81
2022/01/20 18:51:56;;;;;;;39.15;24.15;;;180.10;2252.80;;;;;;4847810;29;20034;-80
2022/01/20 18:54:22;;;;;;;16.48;10.93;;;180.10;2252.80;;;;;;4847060;29;20036;-81
2022/01/20 18:56:48;;;;;;;25.77;16.25;;;180.10;2252.80;;;;;;4846992;29;20021;-80
2022/01/20 18:59:14;;;;;;;20.23;12.02;;;204.80;2252.80;;;;;;4863867;29;20045;-81
2022/01/20 19:01:40;;;;;;;17.33;11.07;;;204.80;2252.80;;;;;;4847084;29;20033;-79
2022/01/20 19:04:06;;;;;;;26.75;16.67;;;204.80;2252.80;;;;;;4863779;29;20482;-81
2022/01/20 19:06:32;;;;;;;26.05;16.58;;;180.10;2252.80;;;;;;4864029;29;20365;-80
2022/01/20 19:08:57;;;;;;;26.92;14.90;;;180.10;2252.80;;;;;;4863986;29;20078;-80
2022/01/20 19:11:23;;;;;;;26.77;15.27;;;180.10;2252.80;;;;;;4863577;29;20029;-81
2022/01/20 19:13:49;;;;;;;21.42;14.48;;;180.10;2252.80;;;;;;4863681;29;20029;-81
2022/01/20 19:16:16;;;;;;;20.63;12.18;;;180.10;2252.80;;;;;;4863949;29;20399;-82
2022/01/20 19:18:42;;;;;;;27.15;17.33;;;180.10;2252.80;;;;;;4846726;29;20044;-82
2022/01/20 19:21:08;;;;;;;23.27;15.15;;;180.10;2252.80;;;;;;4863762;29;20064;-81
2022/01/20 19:23:34;;;;;;;23.90;15.77;;;180.10;2252.80;;;;;;4847278;29;20071;-79
2022/01/20 19:26:00;;;;;;;27.33;17.40;;;180.10;2252.80;;;;;;4864077;29;20030;-84
2022/01/20 19:28:26;;;;;;;31.15;19.40;;;180.10;2252.80;;;;;;4847272;29;20025;-82
2022/01/20 19:30:54;;;;;;;25.52;15.90;;;180.10;2252.80;;;;;;4846743;29;20129;-84
2022/01/20 19:33:29;;;;;;;22.30;14.43;;;180.10;2252.80;;;;;;4847153;29;20086;-82
2022/01/20 19:35:55;;;;;;;70.38;59.85;;;204.80;2252.80;;;;;;4847357;29;20128;-81
2022/01/20 19:38:24;;;;;;;62.67;56.03;;;180.10;2252.80;;;;;;4846663;29;20066;-82
2022/01/20 19:40:50;;;;;;;28.60;25.80;;;180.00;2252.80;;;;;;4846995;29;20052;-83
2022/01/20 19:43:16;;;;;;;19.13;15.45;;;179.80;2252.80;;;;;;4846688;29;20033;-83
2022/01/20 19:45:41;;;;;;;18.77;12.55;;;179.70;2252.80;;;;;;4846697;29;20018;-80
2022/01/20 19:48:07;;;;;;;18.25;10.82;;;179.60;2252.80;;;;;;4846760;29;20032;-81